sensor_id;sensor_type;location;lat;lon;timestamp;pressure;altitude;pressure_sealevel;temperature;humidity
53754;BME280;39667;52.274;20.964;2022-11-15T00:00:17;100805.10;;;6.87;76.19
53754;BME280;39667;52.274;20.964;2022-11-15T00:03:02;100801.46;;;6.89;76.13
53754;BME280;39667;52.274;20.964;2022-11-15T00:05:47;100795.75;;;6.95;76.28
53754;BME280;39667;52.274;20.964;2022-11-15T00:08:32;100789.56;;;7.05;76.40
53754;BME280;39667;52.274;20.964;2022-11-15T00:11:18;100787.89;;;7.11;76.14
53754;BME280;39667;52.274;20.964;2022-11-15T00:14:02;100784.78;;;7.15;76.20
53754;BME280;39667;52.274;20.964;2022-11-15T00:16:47;100780.11;;;7.21;76.24
53754;BME280;39667;52.274;20.964;2022-11-15T00:19:32;100776.24;;;7.20;75.67
53754;BME280;39667;52.274;20.964;2022-11-15T00:22:17;100772.86;;;7.15;75.69
53754;BME280;39667;52.274;20.964;2022-11-15T00:25:03;100769.08;;;7.06;75.57
53754;BME280;39667;52.274;20.964;2022-11-15T00:27:48;100766.36;;;6.98;75.70
53754;BME280;39667;52.274;20.964;2022-11-15T00:30:32;100761.43;;;6.95;76.13
53754;BME280;39667;52.274;20.964;2022-11-15T00:33:17;100757.22;;;6.95;76.25
53754;BME280;39667;52.274;20.964;2022-11-15T00:36:04;100753.74;;;6.97;76.41
53754;BME280;39667;52.274;20.964;2022-11-15T00:38:49;100747.11;;;6.98;76.27
53754;BME280;39667;52.274;20.964;2022-11-15T00:41:34;100748.54;;;7.00;76.41
53754;BME280;39667;52.274;20.964;2022-11-15T00:44:18;100743.98;;;7.01;76.25
53754;BME280;39667;52.274;20.964;2022-11-15T00:47:03;100735.36;;;6.97;76.02
53754;BME280;39667;52.274;20.964;2022-11-15T00:49:48;100733.23;;;6.93;76.25
53754;BME280;39667;52.274;20.964;2022-11-15T00:52:32;100727.62;;;6.93;76.47
53754;BME280;39667;52.274;20.964;2022-11-15T00:55:18;100728.19;;;6.97;76.57
53754;BME280;39667;52.274;20.964;2022-11-15T00:58:03;100726.09;;;6.99;76.38
53754;BME280;39667;52.274;20.964;2022-11-15T01:00:48;100718.14;;;6.91;76.21
53754;BME280;39667;52.274;20.964;2022-11-15T01:03:33;100714.40;;;6.85;76.33
53754;BME280;39667;52.274;20.964;2022-11-15T01:06:19;100706.35;;;6.85;76.73
53754;BME280;39667;52.274;20.964;2022-11-15T01:09:04;100703.74;;;6.87;76.80
53754;BME280;39667;52.274;20.964;2022-11-15T01:11:48;100703.25;;;6.91;76.86
53754;BME280;39667;52.274;20.964;2022-11-15T01:14:33;100697.01;;;6.96;77.03
53754;BME280;39667;52.274;20.964;2022-11-15T01:17:18;100695.88;;;7.05;76.95
53754;BME280;39667;52.274;20.964;2022-11-15T01:20:03;100689.01;;;7.01;76.60
53754;BME280;39667;52.274;20.964;2022-11-15T01:22:48;100688.27;;;6.99;76.82
53754;BME280;39667;52.274;20.964;2022-11-15T01:25:33;100683.91;;;7.00;76.85
53754;BME280;39667;52.274;20.964;2022-11-15T01:28:18;100673.73;;;6.99;76.67
53754;BME280;39667;52.274;20.964;2022-11-15T01:31:05;100671.45;;;6.97;76.81
53754;BME280;39667;52.274;20.964;2022-11-15T01:33:50;100669.33;;;6.95;76.78
53754;BME280;39667;52.274;20.964;2022-11-15T01:36:35;100678.11;;;6.97;76.83
53754;BME280;39667;52.274;20.964;2022-11-15T01:39:20;100664.95;;;6.95;76.87
53754;BME280;39667;52.274;20.964;2022-11-15T01:42:04;100668.45;;;6.94;76.92
53754;BME280;39667;52.274;20.964;2022-11-15T01:44:50;100665.46;;;6.93;76.73
53754;BME280;39667;52.274;20.964;2022-11-15T01:47:39;100663.80;;;6.84;76.87
53754;BME280;39667;52.274;20.964;2022-11-15T01:50:29;100662.89;;;6.83;77.04
53754;BME280;39667;52.274;20.964;2022-11-15T01:53:15;100662.17;;;6.81;77.14
53754;BME280;39667;52.274;20.964;2022-11-15T01:56:03;100652.23;;;6.85;77.22
53754;BME280;39667;52.274;20.964;2022-11-15T01:58:53;100654.15;;;6.84;77.28
53754;BME280;39667;52.274;20.964;2022-11-15T02:01:40;100644.18;;;6.84;77.26
53754;BME280;39667;52.274;20.964;2022-11-15T02:04:32;100642.20;;;6.80;77.12
53754;BME280;39667;52.274;20.964;2022-11-15T02:07:20;100638.03;;;6.82;77.38
53754;BME280;39667;52.274;20.964;2022-11-15T02:10:13;100640.55;;;6.87;77.53
53754;BME280;39667;52.274;20.964;2022-11-15T02:12:59;100633.00;;;6.85;77.22
53754;BME280;39667;52.274;20.964;2022-11-15T02:15:52;100630.52;;;6.84;77.46
53754;BME280;39667;52.274;20.964;2022-11-15T02:25:51;100631.15;;;6.77;77.85
53754;BME280;39667;52.274;20.964;2022-11-15T02:29:08;100628.05;;;6.80;77.69
53754;BME280;39667;52.274;20.964;2022-11-15T02:32:13;100619.98;;;6.79;77.57
53754;BME280;39667;52.274;20.964;2022-11-15T02:35:16;100617.50;;;6.77;77.81
53754;BME280;39667;52.274;20.964;2022-11-15T02:41:30;100610.18;;;6.81;77.59
53754;BME280;39667;52.274;20.964;2022-11-15T02:44:26;100610.52;;;6.80;77.80
53754;BME280;39667;52.274;20.964;2022-11-15T02:47:16;100607.05;;;6.82;77.65
53754;BME280;39667;52.274;20.964;2022-11-15T02:50:02;100606.52;;;6.83;77.89
53754;BME280;39667;52.274;20.964;2022-11-15T02:52:49;100594.84;;;6.87;78.10
53754;BME280;39667;52.274;20.964;2022-11-15T02:55:35;100591.56;;;6.91;78.08
53754;BME280;39667;52.274;20.964;2022-11-15T02:58:44;100597.17;;;6.93;77.91
53754;BME280;39667;52.274;20.964;2022-11-15T03:10:41;100576.63;;;6.67;78.09
53754;BME280;39667;52.274;20.964;2022-11-15T03:19:47;100576.39;;;6.60;78.17
53754;BME280;39667;52.274;20.964;2022-11-15T03:22:38;100568.86;;;6.61;78.55
53754;BME280;39667;52.274;20.964;2022-11-15T03:25:26;100564.93;;;6.70;78.70
53754;BME280;39667;52.274;20.964;2022-11-15T03:28:17;100556.06;;;6.76;78.55
53754;BME280;39667;52.274;20.964;2022-11-15T03:31:05;100558.00;;;6.78;78.27
53754;BME280;39667;52.274;20.964;2022-11-15T03:34:37;100550.36;;;6.67;78.02
53754;BME280;39667;52.274;20.964;2022-11-15T03:37:23;100544.77;;;6.66;78.44
53754;BME280;39667;52.274;20.964;2022-11-15T03:40:09;100540.25;;;6.72;78.58
53754;BME280;39667;52.274;20.964;2022-11-15T03:43:03;100534.55;;;6.79;78.56
53754;BME280;39667;52.274;20.964;2022-11-15T03:46:01;100532.98;;;6.80;78.45
53754;BME280;39667;52.274;20.964;2022-11-15T03:48:53;100532.93;;;6.74;77.99
53754;BME280;39667;52.274;20.964;2022-11-15T03:51:39;100530.69;;;6.58;77.84
53754;BME280;39667;52.274;20.964;2022-11-15T03:54:24;100524.77;;;6.42;77.98
53754;BME280;39667;52.274;20.964;2022-11-15T03:57:09;100525.89;;;6.34;78.67
53754;BME280;39667;52.274;20.964;2022-11-15T03:59:54;100522.17;;;6.29;78.84
53754;BME280;39667;52.274;20.964;2022-11-15T04:02:39;100520.27;;;6.31;79.42
53754;BME280;39667;52.274;20.964;2022-11-15T04:05:24;100512.84;;;6.40;79.46
53754;BME280;39667;52.274;20.964;2022-11-15T04:08:08;100512.71;;;6.45;79.19
53754;BME280;39667;52.274;20.964;2022-11-15T04:10:53;100506.91;;;6.41;79.17
53754;BME280;39667;52.274;20.964;2022-11-15T04:13:38;100511.64;;;6.41;79.21
53754;BME280;39667;52.274;20.964;2022-11-15T04:16:22;100506.57;;;6.42;79.28
53754;BME280;39667;52.274;20.964;2022-11-15T04:19:07;100504.30;;;6.44;79.37
53754;BME280;39667;52.274;20.964;2022-11-15T04:22:10;100505.70;;;6.43;79.10
53754;BME280;39667;52.274;20.964;2022-11-15T04:25:14;100497.30;;;6.26;78.91
53754;BME280;39667;52.274;20.964;2022-11-15T04:28:04;100502.17;;;6.23;79.66
53754;BME280;39667;52.274;20.964;2022-11-15T04:30:49;100497.83;;;6.26;79.60
53754;BME280;39667;52.274;20.964;2022-11-15T04:33:34;100492.04;;;6.23;79.59
53754;BME280;39667;52.274;20.964;2022-11-15T04:36:20;100494.48;;;6.24;79.85
53754;BME280;39667;52.274;20.964;2022-11-15T04:39:23;100494.73;;;6.15;79.60
53754;BME280;39667;52.274;20.964;2022-11-15T04:42:09;100493.39;;;6.19;80.20
53754;BME280;39667;52.274;20.964;2022-11-15T04:44:54;100495.44;;;6.32;80.34
53754;BME280;39667;52.274;20.964;2022-11-15T04:47:43;100492.69;;;6.37;80.04
53754;BME280;39667;52.274;20.964;2022-11-15T04:50:28;100489.90;;;6.39;79.88
53754;BME280;39667;52.274;20.964;2022-11-15T04:53:13;100489.14;;;6.32;79.75
53754;BME280;39667;52.274;20.964;2022-11-15T04:55:58;100485.48;;;6.33;79.95
53754;BME280;39667;52.274;20.964;2022-11-15T04:58:42;100486.20;;;6.35;80.04
53754;BME280;39667;52.274;20.964;2022-11-15T05:01:27;100490.61;;;6.39;80.12
53754;BME280;39667;52.274;20.964;2022-11-15T05:04:12;100488.21;;;6.43;79.85
53754;BME280;39667;52.274;20.964;2022-11-15T05:07:05;100484.48;;;6.20;79.43
53754;BME280;39667;52.274;20.964;2022-11-15T05:09:50;100478.25;;;6.10;79.83
53754;BME280;39667;52.274;20.964;2022-11-15T05:12:35;100473.41;;;6.01;80.27
53754;BME280;39667;52.274;20.964;2022-11-15T05:15:20;100473.21;;;6.00;80.40
53754;BME280;39667;52.274;20.964;2022-11-15T05:18:05;100470.11;;;6.02;80.90
53754;BME280;39667;52.274;20.964;2022-11-15T05:20:49;100473.27;;;6.03;80.35
53754;BME280;39667;52.274;20.964;2022-11-15T05:23:34;100472.30;;;5.96;80.60
53754;BME280;39667;52.274;20.964;2022-11-15T05:26:19;100466.76;;;6.00;80.95
53754;BME280;39667;52.274;20.964;2022-11-15T05:29:04;100466.17;;;5.95;80.54
53754;BME280;39667;52.274;20.964;2022-11-15T05:31:49;100465.55;;;5.85;80.50
53754;BME280;39667;52.274;20.964;2022-11-15T05:34:33;100472.37;;;5.72;80.91
53754;BME280;39667;52.274;20.964;2022-11-15T05:37:18;100468.77;;;5.77;81.71
53754;BME280;39667;52.274;20.964;2022-11-15T05:40:03;100468.70;;;5.87;81.47
53754;BME280;39667;52.274;20.964;2022-11-15T05:42:48;100466.79;;;5.89;81.69
53754;BME280;39667;52.274;20.964;2022-11-15T05:45:34;100463.63;;;6.02;81.97
53754;BME280;39667;52.274;20.964;2022-11-15T05:48:19;100460.27;;;6.12;81.46
53754;BME280;39667;52.274;20.964;2022-11-15T05:51:04;100461.98;;;5.97;80.57
53754;BME280;39667;52.274;20.964;2022-11-15T05:53:51;100458.23;;;5.89;80.92
53754;BME280;39667;52.274;20.964;2022-11-15T05:56:37;100457.25;;;5.94;81.69
53754;BME280;39667;52.274;20.964;2022-11-15T05:59:23;100451.24;;;6.03;81.59
53754;BME280;39667;52.274;20.964;2022-11-15T06:02:08;100448.69;;;6.08;81.58
53754;BME280;39667;52.274;20.964;2022-11-15T06:04:53;100446.86;;;6.03;81.03
53754;BME280;39667;52.274;20.964;2022-11-15T06:07:38;100450.92;;;6.06;81.58
53754;BME280;39667;52.274;20.964;2022-11-15T06:10:22;100454.91;;;6.19;81.73
53754;BME280;39667;52.274;20.964;2022-11-15T06:13:07;100450.42;;;6.24;81.22
53754;BME280;39667;52.274;20.964;2022-11-15T06:15:55;100457.02;;;6.20;80.68
53754;BME280;39667;52.274;20.964;2022-11-15T06:18:40;100461.11;;;6.09;80.59
53754;BME280;39667;52.274;20.964;2022-11-15T06:21:25;100462.95;;;6.04;80.79
53754;BME280;39667;52.274;20.964;2022-11-15T06:24:12;100468.81;;;5.97;80.62
53754;BME280;39667;52.274;20.964;2022-11-15T06:26:57;100468.54;;;5.88;80.71
53754;BME280;39667;52.274;20.964;2022-11-15T06:29:42;100462.25;;;5.88;81.36
53754;BME280;39667;52.274;20.964;2022-11-15T06:32:29;100459.91;;;5.98;81.58
53754;BME280;39667;52.274;20.964;2022-11-15T06:35:15;100454.20;;;6.02;80.77
53754;BME280;39667;52.274;20.964;2022-11-15T06:42:27;100463.63;;;5.86;80.84
53754;BME280;39667;52.274;20.964;2022-11-15T06:45:12;100464.98;;;5.83;81.00
53754;BME280;39667;52.274;20.964;2022-11-15T06:47:58;100465.31;;;5.81;81.32
53754;BME280;39667;52.274;20.964;2022-11-15T06:50:50;100474.15;;;5.89;81.40
53754;BME280;39667;52.274;20.964;2022-11-15T06:53:35;100475.78;;;5.96;81.24
53754;BME280;39667;52.274;20.964;2022-11-15T06:56:20;100476.64;;;5.93;80.77
53754;BME280;39667;52.274;20.964;2022-11-15T06:59:05;100480.53;;;5.82;80.88
53754;BME280;39667;52.274;20.964;2022-11-15T07:01:49;100479.90;;;5.73;80.87
53754;BME280;39667;52.274;20.964;2022-11-15T07:13:42;100481.25;;;5.83;81.25
53754;BME280;39667;52.274;20.964;2022-11-15T07:39:00;100476.89;;;5.56;81.06
53754;BME280;39667;52.274;20.964;2022-11-15T07:46:13;100471.52;;;5.46;81.58
53754;BME280;39667;52.274;20.964;2022-11-15T07:48:58;100468.23;;;5.48;81.47
53754;BME280;39667;52.274;20.964;2022-11-15T07:56:06;100463.03;;;5.37;81.56
53754;BME280;39667;52.274;20.964;2022-11-15T07:58:52;100461.59;;;5.35;81.32
53754;BME280;39667;52.274;20.964;2022-11-15T08:01:37;100457.20;;;5.33;81.91
53754;BME280;39667;52.274;20.964;2022-11-15T08:05:13;100449.60;;;5.52;82.38
53754;BME280;39667;52.274;20.964;2022-11-15T08:12:31;100434.80;;;5.87;81.44
53754;BME280;39667;52.274;20.964;2022-11-15T08:28:38;100422.58;;;5.72;81.49
53754;BME280;39667;52.274;20.964;2022-11-15T08:40:11;100420.44;;;5.69;80.84
53754;BME280;39667;52.274;20.964;2022-11-15T08:42:58;100419.52;;;5.64;80.93
53754;BME280;39667;52.274;20.964;2022-11-15T08:45:47;100417.37;;;5.60;80.96
53754;BME280;39667;52.274;20.964;2022-11-15T08:57:29;100415.05;;;5.88;81.87
53754;BME280;39667;52.274;20.964;2022-11-15T09:09:09;100401.04;;;5.85;80.95
53754;BME280;39667;52.274;20.964;2022-11-15T09:16:21;100393.55;;;5.88;81.17
53754;BME280;39667;52.274;20.964;2022-11-15T09:28:06;100379.64;;;6.11;81.01
53754;BME280;39667;52.274;20.964;2022-11-15T10:06:02;100344.52;;;6.35;80.63
53754;BME280;39667;52.274;20.964;2022-11-15T10:11:19;100333.34;;;6.39;80.04
53754;BME280;39667;52.274;20.964;2022-11-15T10:14:17;100331.25;;;6.39;80.06
53754;BME280;39667;52.274;20.964;2022-11-15T10:16:58;100326.35;;;6.40;79.93
53754;BME280;39667;52.274;20.964;2022-11-15T10:19:34;100328.30;;;6.42;80.09
53754;BME280;39667;52.274;20.964;2022-11-15T10:33:35;100320.34;;;6.28;80.84
53754;BME280;39667;52.274;20.964;2022-11-15T10:45:51;100307.42;;;6.61;80.57
53754;BME280;39667;52.274;20.964;2022-11-15T10:48:21;100304.16;;;6.75;80.69
53754;BME280;39667;52.274;20.964;2022-11-15T10:50:49;100302.30;;;6.86;80.10
53754;BME280;39667;52.274;20.964;2022-11-15T10:53:28;100300.92;;;6.90;79.81
53754;BME280;39667;52.274;20.964;2022-11-15T11:07:21;100287.98;;;6.92;79.15
53754;BME280;39667;52.274;20.964;2022-11-15T11:44:48;100262.81;;;7.06;78.75
53754;BME280;39667;52.274;20.964;2022-11-15T11:56:16;100238.69;;;7.22;78.85
53754;BME280;39667;52.274;20.964;2022-11-15T11:58:46;100239.58;;;7.28;78.91
53754;BME280;39667;52.274;20.964;2022-11-15T12:01:42;100235.20;;;7.35;78.73
53754;BME280;39667;52.274;20.964;2022-11-15T12:08:51;100227.66;;;7.27;78.12
53754;BME280;39667;52.274;20.964;2022-11-15T12:15:55;100225.88;;;7.13;78.65
53754;BME280;39667;52.274;20.964;2022-11-15T12:22:46;100217.69;;;7.26;78.65
53754;BME280;39667;52.274;20.964;2022-11-15T12:32:29;100206.30;;;7.26;78.05
53754;BME280;39667;52.274;20.964;2022-11-15T12:39:17;100198.73;;;7.05;78.51
53754;BME280;39667;52.274;20.964;2022-11-15T12:55:40;100201.73;;;7.13;78.82
53754;BME280;39667;52.274;20.964;2022-11-15T12:58:27;100201.20;;;7.17;78.99
53754;BME280;39667;52.274;20.964;2022-11-15T13:14:58;100189.80;;;7.06;78.81
53754;BME280;39667;52.274;20.964;2022-11-15T13:17:33;100184.89;;;7.04;78.85
53754;BME280;39667;52.274;20.964;2022-11-15T13:22:58;100185.56;;;6.97;78.84
53754;BME280;39667;52.274;20.964;2022-11-15T13:28:30;100172.27;;;6.98;79.40
53754;BME280;39667;52.274;20.964;2022-11-15T13:31:13;100169.14;;;7.05;79.20
53754;BME280;39667;52.274;20.964;2022-11-15T13:38:19;100160.23;;;7.19;79.04
53754;BME280;39667;52.274;20.964;2022-11-15T13:54:47;100155.67;;;7.41;79.02
53754;BME280;39667;52.274;20.964;2022-11-15T14:01:22;100154.98;;;7.45;78.54
53754;BME280;39667;52.274;20.964;2022-11-15T14:03:59;100156.20;;;7.49;78.62
53754;BME280;39667;52.274;20.964;2022-11-15T14:06:28;100151.48;;;7.53;78.62
53754;BME280;39667;52.274;20.964;2022-11-15T14:09:15;100148.84;;;7.61;78.72
53754;BME280;39667;52.274;20.964;2022-11-15T14:11:53;100149.52;;;7.68;78.60
53754;BME280;39667;52.274;20.964;2022-11-15T14:18:52;100138.65;;;7.76;78.19
53754;BME280;39667;52.274;20.964;2022-11-15T14:25:55;100137.06;;;7.83;77.77
53754;BME280;39667;52.274;20.964;2022-11-15T14:30:49;100144.61;;;7.75;77.39
53754;BME280;39667;52.274;20.964;2022-11-15T14:39:19;100132.01;;;7.67;77.52
53754;BME280;39667;52.274;20.964;2022-11-15T14:41:45;100134.98;;;7.72;77.52
53754;BME280;39667;52.274;20.964;2022-11-15T14:51:58;100133.77;;;7.74;77.14
53754;BME280;39667;52.274;20.964;2022-11-15T14:54:24;100134.09;;;7.65;77.04
53754;BME280;39667;52.274;20.964;2022-11-15T14:56:50;100134.11;;;7.60;77.14
53754;BME280;39667;52.274;20.964;2022-11-15T14:59:16;100133.75;;;7.60;77.29
53754;BME280;39667;52.274;20.964;2022-11-15T15:01:42;100130.95;;;7.63;77.16
53754;BME280;39667;52.274;20.964;2022-11-15T15:04:10;100133.77;;;7.61;76.94
53754;BME280;39667;52.274;20.964;2022-11-15T15:06:36;100134.46;;;7.59;77.11
53754;BME280;39667;52.274;20.964;2022-11-15T15:09:02;100130.61;;;7.61;77.25
53754;BME280;39667;52.274;20.964;2022-11-15T15:11:31;100129.91;;;7.62;77.09
53754;BME280;39667;52.274;20.964;2022-11-15T15:13:57;100125.87;;;7.62;77.10
53754;BME280;39667;52.274;20.964;2022-11-15T15:16:26;100128.15;;;7.63;77.10
53754;BME280;39667;52.274;20.964;2022-11-15T15:18:52;100130.25;;;7.63;77.14
53754;BME280;39667;52.274;20.964;2022-11-15T15:21:24;100128.67;;;7.66;77.15
53754;BME280;39667;52.274;20.964;2022-11-15T15:23:51;100123.77;;;7.69;77.23
53754;BME280;39667;52.274;20.964;2022-11-15T15:26:20;100124.29;;;7.71;77.13
53754;BME280;39667;52.274;20.964;2022-11-15T15:28:46;100123.06;;;7.73;77.18
53754;BME280;39667;52.274;20.964;2022-11-15T15:31:14;100121.14;;;7.73;77.14
53754;BME280;39667;52.274;20.964;2022-11-15T15:33:40;100118.67;;;7.75;77.13
53754;BME280;39667;52.274;20.964;2022-11-15T15:36:13;100115.86;;;7.77;77.00
53754;BME280;39667;52.274;20.964;2022-11-15T15:38:40;100116.73;;;7.78;76.93
53754;BME280;39667;52.274;20.964;2022-11-15T15:41:11;100117.44;;;7.79;76.63
53754;BME280;39667;52.274;20.964;2022-11-15T15:43:37;100116.73;;;7.76;76.65
53754;BME280;39667;52.274;20.964;2022-11-15T15:46:04;100118.67;;;7.73;76.54
53754;BME280;39667;52.274;20.964;2022-11-15T15:48:30;100119.04;;;7.70;76.83
53754;BME280;39667;52.274;20.964;2022-11-15T15:50:56;100112.72;;;7.72;76.90
53754;BME280;39667;52.274;20.964;2022-11-15T15:53:22;100108.34;;;7.72;76.72
53754;BME280;39667;52.274;20.964;2022-11-15T15:55:48;100108.15;;;7.76;76.95
53754;BME280;39667;52.274;20.964;2022-11-15T15:58:15;100106.56;;;7.78;76.83
53754;BME280;39667;52.274;20.964;2022-11-15T16:00:41;100103.42;;;7.73;76.67
53754;BME280;39667;52.274;20.964;2022-11-15T16:03:07;100101.50;;;7.69;76.77
53754;BME280;39667;52.274;20.964;2022-11-15T16:05:33;100100.28;;;7.66;76.62
53754;BME280;39667;52.274;20.964;2022-11-15T16:07:59;100098.17;;;7.60;76.73
53754;BME280;39667;52.274;20.964;2022-11-15T16:10:27;100100.83;;;7.58;76.87
53754;BME280;39667;52.274;20.964;2022-11-15T16:12:55;100095.04;;;7.58;76.85
53754;BME280;39667;52.274;20.964;2022-11-15T16:15:23;100096.09;;;7.55;76.83
53754;BME280;39667;52.274;20.964;2022-11-15T16:17:51;100091.02;;;7.49;76.94
53754;BME280;39667;52.274;20.964;2022-11-15T16:20:47;100090.13;;;7.48;77.08
53754;BME280;39667;52.274;20.964;2022-11-15T16:23:17;100089.44;;;7.47;77.22
53754;BME280;39667;52.274;20.964;2022-11-15T16:25:51;100093.64;;;7.51;77.32
53754;BME280;39667;52.274;20.964;2022-11-15T16:28:23;100088.38;;;7.55;77.27
53754;BME280;39667;52.274;20.964;2022-11-15T16:30:59;100089.27;;;7.55;77.07
53754;BME280;39667;52.274;20.964;2022-11-15T16:33:26;100092.41;;;7.51;76.94
53754;BME280;39667;52.274;20.964;2022-11-15T16:35:52;100090.66;;;7.46;77.04
53754;BME280;39667;52.274;20.964;2022-11-15T16:38:18;100087.88;;;7.48;77.18
53754;BME280;39667;52.274;20.964;2022-11-15T16:40:44;100092.95;;;7.45;77.02
53754;BME280;39667;52.274;20.964;2022-11-15T16:43:10;100098.21;;;7.42;77.15
53754;BME280;39667;52.274;20.964;2022-11-15T16:45:36;100097.33;;;7.41;77.09
53754;BME280;39667;52.274;20.964;2022-11-15T16:48:03;100095.76;;;7.38;77.25
53754;BME280;39667;52.274;20.964;2022-11-15T16:50:31;100088.57;;;7.41;77.46
53754;BME280;39667;52.274;20.964;2022-11-15T16:53:00;100090.68;;;7.43;77.34
53754;BME280;39667;52.274;20.964;2022-11-15T16:55:28;100095.06;;;7.39;77.29
53754;BME280;39667;52.274;20.964;2022-11-15T16:57:55;100098.75;;;7.37;77.44
53754;BME280;39667;52.274;20.964;2022-11-15T17:00:26;100099.09;;;7.36;77.53
53754;BME280;39667;52.274;20.964;2022-11-15T17:02:52;100092.79;;;7.37;77.65
53754;BME280;39667;52.274;20.964;2022-11-15T17:05:20;100092.27;;;7.32;77.60
53754;BME280;39667;52.274;20.964;2022-11-15T17:07:50;100089.46;;;7.34;78.02
53754;BME280;39667;52.274;20.964;2022-11-15T17:10:23;100087.00;;;7.31;77.65
53754;BME280;39667;52.274;20.964;2022-11-15T17:12:50;100088.06;;;7.29;78.17
53754;BME280;39667;52.274;20.964;2022-11-15T17:15:17;100089.10;;;7.35;78.28
53754;BME280;39667;52.274;20.964;2022-11-15T17:17:44;100086.47;;;7.40;78.39
53754;BME280;39667;52.274;20.964;2022-11-15T17:20:14;100086.11;;;7.44;78.16
53754;BME280;39667;52.274;20.964;2022-11-15T17:22:40;100086.98;;;7.42;78.01
53754;BME280;39667;52.274;20.964;2022-11-15T17:25:07;100084.19;;;7.42;78.02
53754;BME280;39667;52.274;20.964;2022-11-15T17:27:33;100078.06;;;7.41;77.92
53754;BME280;39667;52.274;20.964;2022-11-15T17:29:59;100081.22;;;7.40;77.94
53754;BME280;39667;52.274;20.964;2022-11-15T17:32:25;100087.35;;;7.37;77.61
53754;BME280;39667;52.274;20.964;2022-11-15T17:34:51;100088.94;;;7.30;77.38
53754;BME280;39667;52.274;20.964;2022-11-15T17:37:17;100094.71;;;7.29;77.70
53754;BME280;39667;52.274;20.964;2022-11-15T17:39:44;100097.17;;;7.31;77.79
53754;BME280;39667;52.274;20.964;2022-11-15T17:42:10;100095.77;;;7.33;77.91
53754;BME280;39667;52.274;20.964;2022-11-15T17:44:36;100094.53;;;7.35;77.70
53754;BME280;39667;52.274;20.964;2022-11-15T17:47:02;100095.59;;;7.31;77.65
53754;BME280;39667;52.274;20.964;2022-11-15T17:49:28;100087.89;;;7.31;77.65
53754;BME280;39667;52.274;20.964;2022-11-15T17:51:53;100085.61;;;7.34;77.84
53754;BME280;39667;52.274;20.964;2022-11-15T17:54:20;100084.73;;;7.36;77.78
53754;BME280;39667;52.274;20.964;2022-11-15T17:56:46;100075.98;;;7.29;77.48
53754;BME280;39667;52.274;20.964;2022-11-15T17:59:12;100071.60;;;7.29;77.79
53754;BME280;39667;52.274;20.964;2022-11-15T18:01:44;100071.77;;;7.32;77.96
53754;BME280;39667;52.274;20.964;2022-11-15T18:04:09;100075.11;;;7.33;77.80
53754;BME280;39667;52.274;20.964;2022-11-15T18:06:36;100071.77;;;7.31;77.72
53754;BME280;39667;52.274;20.964;2022-11-15T18:09:03;100067.91;;;7.32;77.68
53754;BME280;39667;52.274;20.964;2022-11-15T18:11:31;100070.02;;;7.31;77.69
53754;BME280;39667;52.274;20.964;2022-11-15T18:14:00;100070.19;;;7.33;77.62
53754;BME280;39667;52.274;20.964;2022-11-15T18:16:29;100069.14;;;7.32;77.57
53754;BME280;39667;52.274;20.964;2022-11-15T18:18:56;100064.23;;;7.31;77.75
53754;BME280;39667;52.274;20.964;2022-11-15T18:21:25;100061.09;;;7.32;77.92
53754;BME280;39667;52.274;20.964;2022-11-15T18:23:53;100056.70;;;7.35;77.74
53754;BME280;39667;52.274;20.964;2022-11-15T18:26:20;100056.35;;;7.34;77.59
53754;BME280;39667;52.274;20.964;2022-11-15T18:28:54;100052.84;;;7.36;77.61
53754;BME280;39667;52.274;20.964;2022-11-15T18:31:23;100057.93;;;7.30;77.13
53754;BME280;39667;52.274;20.964;2022-11-15T18:33:50;100061.27;;;7.16;77.19
53754;BME280;39667;52.274;20.964;2022-11-15T18:36:22;100061.10;;;7.11;77.75
53754;BME280;39667;52.274;20.964;2022-11-15T18:39:00;100065.30;;;7.12;77.84
53754;BME280;39667;52.274;20.964;2022-11-15T18:41:31;100065.11;;;7.15;77.96
53754;BME280;39667;52.274;20.964;2022-11-15T18:43:59;100063.55;;;7.14;77.83
53754;BME280;39667;52.274;20.964;2022-11-15T18:46:29;100066.34;;;7.16;77.74
53754;BME280;39667;52.274;20.964;2022-11-15T18:48:58;100058.81;;;7.16;77.73
53754;BME280;39667;52.274;20.964;2022-11-15T18:51:26;100060.39;;;7.20;77.74
53754;BME280;39667;52.274;20.964;2022-11-15T18:53:57;100063.37;;;7.20;77.54
53754;BME280;39667;52.274;20.964;2022-11-15T18:56:25;100062.14;;;7.18;77.42
53754;BME280;39667;52.274;20.964;2022-11-15T18:58:54;100064.07;;;7.18;77.54
53754;BME280;39667;52.274;20.964;2022-11-15T19:01:23;100063.53;;;7.22;77.50
53754;BME280;39667;52.274;20.964;2022-11-15T19:03:53;100063.88;;;7.23;77.25
53754;BME280;39667;52.274;20.964;2022-11-15T19:06:28;100061.80;;;7.19;77.15
53754;BME280;39667;52.274;20.964;2022-11-15T19:08:56;100063.20;;;7.18;77.30
53754;BME280;39667;52.274;20.964;2022-11-15T19:11:25;100063.89;;;7.16;77.25
53754;BME280;39667;52.274;20.964;2022-11-15T19:13:54;100062.50;;;7.08;76.96
53754;BME280;39667;52.274;20.964;2022-11-15T19:16:22;100063.53;;;7.03;77.22
53754;BME280;39667;52.274;20.964;2022-11-15T19:18:58;100060.39;;;7.04;77.47
53754;BME280;39667;52.274;20.964;2022-11-15T19:21:26;100059.00;;;7.05;77.49
53754;BME280;39667;52.274;20.964;2022-11-15T19:23:52;100063.55;;;7.07;77.62
53754;BME280;39667;52.274;20.964;2022-11-15T19:26:23;100060.23;;;7.11;77.64
53754;BME280;39667;52.274;20.964;2022-11-15T19:28:54;100060.91;;;7.15;77.56
53754;BME280;39667;52.274;20.964;2022-11-15T19:31:22;100061.10;;;7.13;77.30
53754;BME280;39667;52.274;20.964;2022-11-15T19:33:49;100057.95;;;7.09;77.18
53754;BME280;39667;52.274;20.964;2022-11-15T19:36:21;100054.80;;;7.10;77.40
53754;BME280;39667;52.274;20.964;2022-11-15T19:38:48;100053.73;;;7.14;77.22